createdAt,value
2017-07-10T00:01:07.000Z,3.60
2017-07-10T00:03:35.157Z,6.97
2017-07-10T00:06:03.272Z,4.90
2017-07-10T00:08:31.420Z,3.13
2017-07-10T00:10:59.564Z,6.23
2017-07-10T00:13:28.462Z,8.33
2017-07-10T00:15:56.652Z,6.93
2017-07-10T00:18:24.787Z,6.30
2017-07-10T00:20:53.040Z,3.10
2017-07-10T00:23:21.171Z,4.00
2017-07-10T00:25:49.308Z,3.87
2017-07-10T00:28:17.469Z,11.60
2017-07-10T00:30:45.587Z,3.60
2017-07-10T00:33:13.743Z,4.20
2017-07-10T00:35:41.933Z,3.57
2017-07-10T00:38:10.093Z,7.90
2017-07-10T00:40:39.009Z,3.33
2017-07-10T00:43:07.137Z,3.83
2017-07-10T00:45:35.300Z,4.50
2017-07-10T00:48:03.433Z,3.90
2017-07-10T00:50:31.607Z,4.43
2017-07-10T00:52:59.748Z,3.40
2017-07-10T00:55:27.929Z,3.80
2017-07-10T00:57:56.085Z,4.17
2017-07-10T01:00:24.195Z,6.20
2017-07-10T01:02:52.367Z,3.40
2017-07-10T01:05:20.584Z,4.83
2017-07-10T01:07:48.752Z,5.70
2017-07-10T01:10:16.884Z,5.70
2017-07-10T01:12:45.013Z,4.53
2017-07-10T01:15:13.163Z,4.67
2017-07-10T01:17:41.289Z,5.60
2017-07-10T01:20:09.456Z,4.77
2017-07-10T01:22:37.593Z,4.73
2017-07-10T01:25:05.832Z,4.33
2017-07-10T01:27:33.949Z,5.00
2017-07-10T01:30:02.077Z,4.70
2017-07-10T01:32:30.208Z,5.70
2017-07-10T01:34:58.311Z,3.43
2017-07-10T01:37:26.463Z,3.53
2017-07-10T01:39:54.575Z,3.30
2017-07-10T01:42:22.757Z,3.70
2017-07-10T01:44:50.943Z,6.83
2017-07-10T01:47:19.059Z,5.43
2017-07-10T01:49:47.192Z,4.70
2017-07-10T01:52:15.323Z,3.30
2017-07-10T01:54:43.479Z,6.57
2017-07-10T01:57:11.591Z,2.80
2017-07-10T01:59:39.751Z,5.33
2017-07-10T02:02:07.889Z,5.23
2017-07-10T02:04:35.992Z,4.40
2017-07-10T02:07:04.135Z,3.90
2017-07-10T02:09:32.250Z,5.80
2017-07-10T02:12:00.397Z,3.00
2017-07-10T02:14:28.508Z,5.63
2017-07-10T02:16:56.660Z,3.63
2017-07-10T02:19:24.793Z,4.83
2017-07-10T02:21:52.910Z,7.27
2017-07-10T02:24:21.088Z,2.87
2017-07-10T02:26:49.217Z,4.37
2017-07-10T02:29:17.347Z,3.43
2017-07-10T02:31:46.256Z,7.20
2017-07-10T02:34:14.365Z,4.67
2017-07-10T02:36:42.505Z,7.87
2017-07-10T02:39:10.661Z,5.13
2017-07-10T02:41:38.784Z,4.53
2017-07-10T02:44:07.675Z,3.17
2017-07-10T02:46:36.698Z,6.73
2017-07-10T02:49:04.829Z,4.17
2017-07-10T02:51:33.062Z,2.87
2017-07-10T02:54:01.203Z,3.90
2017-07-10T02:56:29.325Z,4.40
2017-07-10T02:58:57.940Z,4.20
2017-07-10T03:01:26.235Z,3.63
2017-07-10T03:03:54.367Z,5.07
2017-07-10T03:06:22.507Z,4.37
2017-07-10T03:08:51.565Z,5.60
2017-07-10T03:11:19.696Z,4.30
2017-07-10T03:13:47.852Z,6.43
2017-07-10T03:16:15.999Z,6.10
2017-07-10T03:18:44.119Z,6.50
2017-07-10T03:21:12.261Z,5.30
2017-07-10T03:23:41.130Z,4.60
2017-07-10T03:26:09.248Z,3.20
2017-07-10T03:28:37.395Z,3.00
2017-07-10T03:31:05.511Z,4.60
2017-07-10T03:33:33.632Z,3.27
2017-07-10T03:36:01.790Z,4.23
2017-07-10T03:38:29.893Z,4.60
2017-07-10T03:40:58.009Z,4.07
2017-07-10T03:43:26.131Z,4.77
2017-07-10T03:45:54.254Z,3.73
2017-07-10T03:48:22.494Z,5.03
2017-07-10T03:50:50.655Z,6.43
2017-07-10T03:53:18.780Z,6.40
2017-07-10T03:55:46.922Z,3.17
2017-07-10T03:58:15.842Z,3.73
2017-07-10T04:00:44.842Z,4.30
2017-07-10T04:03:12.978Z,3.93
2017-07-10T04:05:41.078Z,4.50
2017-07-10T04:08:09.211Z,5.33
2017-07-10T04:10:37.342Z,5.03
2017-07-10T04:13:05.498Z,6.23
2017-07-10T04:15:33.632Z,6.87
2017-07-10T04:18:01.739Z,3.43
2017-07-10T04:20:29.870Z,2.83
2017-07-10T04:22:58.027Z,3.40
2017-07-10T04:25:26.911Z,4.30
2017-07-10T04:27:55.050Z,3.30
2017-07-10T04:30:23.203Z,4.73
2017-07-10T04:32:51.344Z,3.20
2017-07-10T04:35:19.448Z,4.00
2017-07-10T04:37:47.605Z,5.20
2017-07-10T04:40:16.493Z,5.70
2017-07-10T04:42:44.598Z,5.60
2017-07-10T04:45:12.742Z,4.73
2017-07-10T04:47:40.877Z,8.97
2017-07-10T04:50:08.998Z,4.10
2017-07-10T04:52:37.173Z,4.97
2017-07-10T04:55:05.288Z,7.20
2017-07-10T04:57:33.419Z,6.60
2017-07-10T05:00:01.596Z,7.47
2017-07-10T05:02:29.708Z,9.57
2017-07-10T05:04:57.816Z,5.67
2017-07-10T05:07:25.946Z,3.70
2017-07-10T05:09:54.078Z,3.57
2017-07-10T05:12:22.211Z,5.30
2017-07-10T05:14:50.358Z,3.93
2017-07-10T05:17:18.503Z,7.93
2017-07-10T05:19:47.396Z,7.93
2017-07-10T05:22:16.326Z,5.60
2017-07-10T05:24:44.467Z,5.80
2017-07-10T05:27:12.612Z,4.50
2017-07-10T05:29:40.757Z,4.67
2017-07-10T05:32:08.876Z,4.00
2017-07-10T05:34:37.001Z,2.63
2017-07-10T05:37:05.146Z,3.97
2017-07-10T05:39:33.283Z,8.70
2017-07-10T05:42:01.397Z,5.03
2017-07-10T05:44:29.624Z,5.63
2017-07-10T05:46:57.697Z,3.53
2017-07-10T05:49:25.820Z,6.00
2017-07-10T05:51:53.962Z,6.13
2017-07-10T05:54:22.107Z,4.63
2017-07-10T05:56:50.224Z,5.60
2017-07-10T05:59:18.377Z,7.20
2017-07-10T06:01:46.478Z,6.67
2017-07-10T06:04:14.637Z,3.77
2017-07-10T06:06:42.810Z,3.80
2017-07-10T06:09:10.976Z,3.13
2017-07-10T06:11:39.115Z,5.90
2017-07-10T06:14:07.260Z,5.23
2017-07-10T06:16:35.411Z,3.60
2017-07-10T06:19:04.348Z,3.50
2017-07-10T06:21:32.550Z,8.50
2017-07-10T06:24:01.458Z,4.83
2017-07-10T06:26:30.615Z,5.70
2017-07-10T06:28:58.819Z,5.37
2017-07-10T06:31:26.957Z,7.23
2017-07-10T06:33:55.078Z,7.33
2017-07-10T06:36:23.294Z,5.53
2017-07-10T06:38:51.432Z,3.23
2017-07-10T06:41:19.585Z,7.10
2017-07-10T06:43:47.790Z,7.80
2017-07-10T06:46:15.919Z,7.67
2017-07-10T06:48:44.041Z,4.40
2017-07-10T06:51:12.256Z,3.83
2017-07-10T06:53:40.368Z,6.37
2017-07-10T06:56:08.478Z,3.77
2017-07-10T06:58:36.619Z,4.00
2017-07-10T07:01:04.731Z,4.43
2017-07-10T07:03:32.931Z,6.97
2017-07-10T07:06:01.066Z,3.57
2017-07-10T07:08:29.209Z,3.23
2017-07-10T07:10:57.377Z,4.70
2017-07-10T07:13:25.547Z,5.33
2017-07-10T07:15:53.682Z,3.67
2017-07-10T07:18:21.938Z,3.70
2017-07-10T07:20:50.114Z,3.50
2017-07-10T07:23:18.246Z,2.70
2017-07-10T07:25:46.439Z,4.03
2017-07-10T07:28:14.574Z,2.90
2017-07-10T07:30:42.846Z,3.97
2017-07-10T07:33:11.049Z,3.10
2017-07-10T07:35:39.168Z,5.43
2017-07-10T07:38:07.288Z,3.10
2017-07-10T07:40:35.434Z,6.63
2017-07-10T07:43:04.338Z,8.43
2017-07-10T07:45:33.222Z,5.13
2017-07-10T07:48:02.136Z,8.30
2017-07-10T07:50:30.248Z,3.40
2017-07-10T07:52:58.403Z,3.13
2017-07-10T07:55:26.560Z,4.10
2017-07-10T07:57:54.718Z,4.50
2017-07-10T08:00:22.863Z,3.80
2017-07-10T08:02:51.022Z,4.10
2017-07-10T08:05:19.156Z,2.27
2017-07-10T08:07:48.068Z,4.97
2017-07-10T08:10:16.225Z,4.80
2017-07-10T08:12:44.419Z,4.20
2017-07-10T08:15:12.567Z,7.37
2017-07-10T08:17:40.709Z,4.10
2017-07-10T08:20:08.849Z,3.17
2017-07-10T08:22:36.966Z,3.93
2017-07-10T08:25:05.906Z,3.73
2017-07-10T08:27:34.839Z,3.50
2017-07-10T08:30:02.976Z,1.60
2017-07-10T08:32:31.135Z,2.03
2017-07-10T08:34:59.268Z,2.40
2017-07-10T08:37:27.472Z,1.80
2017-07-10T08:39:55.628Z,1.73
2017-07-10T08:42:24.538Z,3.27
2017-07-10T08:44:52.645Z,4.80
2017-07-10T08:47:20.799Z,3.57
2017-07-10T08:49:49.551Z,4.27
2017-07-10T08:52:17.659Z,3.50
2017-07-10T08:54:45.822Z,3.30
2017-07-10T08:57:14.003Z,4.17
2017-07-10T08:59:42.919Z,3.17
2017-07-10T09:02:11.192Z,2.20
2017-07-10T09:04:39.307Z,4.03
2017-07-10T09:07:07.451Z,3.60
2017-07-10T09:09:35.830Z,2.17
2017-07-10T09:12:03.963Z,2.10
2017-07-10T09:14:32.083Z,3.10
2017-07-10T09:17:00.246Z,2.97
2017-07-10T09:19:28.534Z,3.87
2017-07-10T09:21:56.775Z,2.90
2017-07-10T09:24:24.985Z,1.93
2017-07-10T09:26:53.223Z,2.80
2017-07-10T09:29:21.376Z,1.93
2017-07-10T09:31:49.503Z,3.93
2017-07-10T09:34:17.630Z,2.23
2017-07-10T09:36:45.764Z,5.17
2017-07-10T09:39:13.933Z,5.40
2017-07-10T09:41:42.062Z,2.43
2017-07-10T09:44:10.187Z,2.10
2017-07-10T09:46:39.234Z,2.63
2017-07-10T09:49:07.375Z,2.47
2017-07-10T09:51:35.505Z,2.90
2017-07-10T09:54:04.518Z,2.70
2017-07-10T09:56:32.642Z,2.53
2017-07-10T09:59:00.782Z,2.07
2017-07-10T10:01:28.919Z,2.27
2017-07-10T10:03:57.057Z,5.13
2017-07-10T10:06:25.223Z,1.83
2017-07-10T10:08:54.127Z,3.43
2017-07-10T10:11:22.264Z,3.07
2017-07-10T10:13:50.441Z,2.70
2017-07-10T10:16:18.561Z,2.00
2017-07-10T10:18:46.666Z,2.50
2017-07-10T10:21:14.821Z,3.27
2017-07-10T10:23:42.973Z,2.47
2017-07-10T10:26:11.154Z,7.23
2017-07-10T10:28:39.285Z,4.33
2017-07-10T10:31:07.782Z,2.37
2017-07-10T10:33:35.968Z,5.83
2017-07-10T10:36:04.106Z,5.60
2017-07-10T10:38:32.364Z,2.40
2017-07-10T10:41:00.504Z,2.30
2017-07-10T10:43:28.618Z,3.23
2017-07-10T10:45:56.759Z,3.60
2017-07-10T10:48:25.681Z,2.23
2017-07-10T10:50:53.792Z,3.93
2017-07-10T10:53:22.024Z,3.23
2017-07-10T10:55:50.186Z,3.90
2017-07-10T10:58:18.294Z,5.27
2017-07-10T11:00:46.406Z,3.13
2017-07-10T11:03:14.578Z,4.80
2017-07-10T11:05:42.692Z,3.83
2017-07-10T11:08:10.825Z,4.00
2017-07-10T11:10:39.839Z,2.50
2017-07-10T11:13:07.989Z,3.70
2017-07-10T11:15:36.958Z,3.00
2017-07-10T11:18:05.105Z,3.10
2017-07-10T11:20:33.228Z,3.20
2017-07-10T11:23:01.410Z,2.30
2017-07-10T11:25:29.687Z,3.10
2017-07-10T11:27:58.626Z,3.30
2017-07-10T11:30:26.803Z,2.33
2017-07-10T11:32:54.998Z,2.50
2017-07-10T11:35:23.161Z,12.60
2017-07-10T11:37:51.321Z,4.50
2017-07-10T11:40:19.477Z,5.60
2017-07-10T11:42:47.596Z,2.60
2017-07-10T11:45:16.012Z,2.83
2017-07-10T11:47:44.223Z,2.50
2017-07-10T11:50:12.447Z,4.33
2017-07-10T11:52:40.590Z,3.40
2017-07-10T11:55:08.725Z,5.27
2017-07-10T11:57:36.834Z,2.03
2017-07-10T12:00:04.997Z,2.47
2017-07-10T12:02:33.285Z,2.03
2017-07-10T12:05:01.393Z,3.30
2017-07-10T12:07:29.536Z,3.10
2017-07-10T12:09:57.688Z,3.87
2017-07-10T12:12:25.839Z,5.10
2017-07-10T12:14:53.975Z,2.00
2017-07-10T12:17:22.127Z,3.77
2017-07-10T12:19:50.381Z,4.30
2017-07-10T12:22:18.605Z,3.30
2017-07-10T12:24:47.101Z,3.50
2017-07-10T12:27:15.531Z,3.27
2017-07-10T12:29:43.690Z,4.50
2017-07-10T12:32:12.355Z,2.40
2017-07-10T12:34:40.474Z,3.43
2017-07-10T12:37:08.595Z,4.77
2017-07-10T12:39:37.361Z,3.07
2017-07-10T12:42:05.492Z,2.50
2017-07-10T12:44:33.665Z,1.73
2017-07-10T12:47:02.615Z,5.43
2017-07-10T12:49:32.270Z,6.10
2017-07-10T12:52:00.611Z,3.63
2017-07-10T12:54:28.829Z,2.70
2017-07-10T12:56:57.023Z,4.10
2017-07-10T12:59:25.186Z,4.83
2017-07-10T13:01:53.426Z,3.40
2017-07-10T13:04:21.576Z,3.97
2017-07-10T13:06:49.723Z,5.23
2017-07-10T13:09:17.924Z,6.40
2017-07-10T13:11:46.047Z,4.93
2017-07-10T13:14:14.193Z,3.10
2017-07-10T13:16:42.347Z,7.03
2017-07-10T13:19:10.468Z,8.73
2017-07-10T13:21:38.592Z,23.10
2017-07-10T13:24:06.767Z,24.73
2017-07-10T13:26:34.917Z,46.10
2017-07-10T13:29:03.064Z,29.30
2017-07-10T13:31:31.273Z,21.63
2017-07-10T13:33:59.431Z,17.47
2017-07-10T13:36:27.597Z,34.03
2017-07-10T13:38:56.531Z,15.77
2017-07-10T13:41:24.677Z,20.40
2017-07-10T13:43:53.647Z,24.77
2017-07-10T13:46:21.837Z,16.00
2017-07-10T13:48:50.019Z,8.13
2017-07-10T13:51:18.141Z,7.33
2017-07-10T13:53:46.273Z,11.70
2017-07-10T13:56:14.430Z,32.43
2017-07-10T13:58:43.388Z,39.50
2017-07-10T14:01:11.567Z,48.90
2017-07-10T14:03:39.704Z,53.93
2017-07-10T14:06:07.852Z,56.17
2017-07-10T14:08:36.022Z,54.70
2017-07-10T14:11:04.155Z,62.10
2017-07-10T14:13:32.365Z,43.47
2017-07-10T14:16:00.556Z,32.07
2017-07-10T14:18:28.728Z,22.47
2017-07-10T14:20:56.874Z,23.50
2017-07-10T14:23:25.015Z,6.00
2017-07-10T14:25:53.183Z,17.97
2017-07-10T14:28:21.314Z,12.13
2017-07-10T14:30:49.484Z,5.57
2017-07-10T14:33:17.615Z,4.57
2017-07-10T14:35:45.731Z,4.30
2017-07-10T14:38:14.253Z,4.93
2017-07-10T14:40:42.419Z,4.50
2017-07-10T14:43:10.544Z,9.77
2017-07-10T14:45:39.066Z,43.37
2017-07-10T14:48:07.211Z,42.87
2017-07-10T14:50:35.406Z,59.00
2017-07-10T14:53:03.607Z,16.87
2017-07-10T14:55:32.526Z,25.57
2017-07-10T14:58:00.670Z,58.27
2017-07-10T15:00:28.893Z,40.20
2017-07-10T15:02:57.040Z,94.47
2017-07-10T15:05:25.958Z,32.20
2017-07-10T15:07:54.105Z,24.97
2017-07-10T15:10:22.290Z,9.37
2017-07-10T15:12:50.422Z,10.47
2017-07-10T15:15:18.575Z,13.30
2017-07-10T15:17:46.781Z,11.47
2017-07-10T15:20:14.923Z,10.13
2017-07-10T15:22:43.147Z,7.00
2017-07-10T15:25:11.287Z,6.90
2017-07-10T15:27:39.464Z,4.70
2017-07-10T15:30:07.627Z,6.47
2017-07-10T15:32:35.777Z,4.13
2017-07-10T15:35:03.919Z,6.33
2017-07-10T15:37:32.048Z,6.57
2017-07-10T15:40:00.251Z,4.67
2017-07-10T15:42:29.147Z,4.63
2017-07-10T15:44:57.380Z,7.90
2017-07-10T15:47:25.546Z,4.43
2017-07-10T15:49:53.686Z,5.20
2017-07-10T15:52:21.856Z,4.83
2017-07-10T15:54:50.798Z,7.03
2017-07-10T15:57:20.011Z,4.80
2017-07-10T15:59:48.136Z,5.73
2017-07-10T16:02:16.339Z,3.53
2017-07-10T16:04:44.460Z,3.63
2017-07-10T16:07:12.575Z,4.03
2017-07-10T16:09:40.746Z,3.63
2017-07-10T16:12:08.889Z,5.63
2017-07-10T16:14:37.085Z,10.13
2017-07-10T16:17:05.293Z,8.47
2017-07-10T16:19:33.445Z,19.07
2017-07-10T16:22:01.591Z,11.97
2017-07-10T16:24:30.531Z,27.90
2017-07-10T16:26:58.667Z,53.07
2017-07-10T16:29:26.815Z,43.70
2017-07-10T16:31:55.057Z,86.20
2017-07-10T16:34:23.185Z,59.57
2017-07-10T16:36:51.345Z,37.07
2017-07-10T16:39:20.493Z,17.50
2017-07-10T16:41:48.639Z,7.30
2017-07-10T16:44:16.782Z,5.70
2017-07-10T16:46:44.964Z,6.23
2017-07-10T16:49:13.545Z,5.20
2017-07-10T16:51:41.718Z,6.37
2017-07-10T16:54:10.017Z,4.83
2017-07-10T16:56:38.158Z,3.87
2017-07-10T16:59:06.276Z,4.03
2017-07-10T17:01:34.476Z,3.73
2017-07-10T17:04:02.620Z,3.80
2017-07-10T17:06:30.736Z,2.73
2017-07-10T17:08:58.909Z,3.43
2017-07-10T17:11:27.018Z,3.40
2017-07-10T17:13:55.152Z,8.20
2017-07-10T17:16:23.321Z,4.73
2017-07-10T17:18:51.437Z,3.40
2017-07-10T17:21:19.564Z,5.83
2017-07-10T17:23:47.730Z,2.57
2017-07-10T17:26:15.859Z,3.30
2017-07-10T17:28:44.011Z,3.70
2017-07-10T17:31:12.944Z,4.27
2017-07-10T17:33:41.077Z,4.00
2017-07-10T17:36:09.253Z,5.10
2017-07-10T17:38:37.393Z,14.70
2017-07-10T17:41:06.141Z,69.30
2017-07-10T17:43:34.298Z,5.50
2017-07-10T17:46:02.439Z,3.00
2017-07-10T17:48:30.567Z,5.30
2017-07-10T17:50:58.684Z,3.40
2017-07-10T17:53:26.841Z,3.17
2017-07-10T17:55:55.513Z,3.80
2017-07-10T17:58:23.645Z,2.83
2017-07-10T18:00:52.752Z,3.97
2017-07-10T18:03:20.874Z,6.87
2017-07-10T18:05:49.014Z,13.47
2017-07-10T18:08:17.188Z,16.33
2017-07-10T18:10:45.332Z,9.93
2017-07-10T18:13:14.256Z,22.73
2017-07-10T18:15:42.455Z,10.30
2017-07-10T18:18:10.590Z,39.90
2017-07-10T18:20:38.891Z,44.93
2017-07-10T18:23:07.040Z,29.50
2017-07-10T18:25:35.943Z,10.60
2017-07-10T18:28:04.061Z,7.43
2017-07-10T18:30:33.771Z,8.00
2017-07-10T18:33:01.938Z,7.90
2017-07-10T18:35:30.905Z,7.07
2017-07-10T18:38:00.277Z,4.43
2017-07-10T18:40:29.207Z,4.80
2017-07-10T18:42:57.340Z,4.40
2017-07-10T18:45:25.954Z,4.10
2017-07-10T18:47:54.739Z,145.97
2017-07-10T18:50:22.994Z,187.47
2017-07-10T18:52:51.917Z,49.47
2017-07-10T18:55:20.100Z,5.43
2017-07-10T18:57:48.228Z,3.27
2017-07-10T19:00:16.381Z,2.53
2017-07-10T19:02:46.289Z,2.63
2017-07-10T19:05:16.378Z,3.40
2017-07-10T19:07:45.235Z,3.60
2017-07-10T19:10:14.182Z,4.30
2017-07-10T19:12:44.886Z,2.73
2017-07-10T19:15:13.078Z,2.50
2017-07-10T19:17:41.246Z,2.90
2017-07-10T19:20:09.377Z,2.43
2017-07-10T19:22:39.693Z,102.47
2017-07-10T19:25:08.489Z,119.70
2017-07-10T19:27:36.638Z,46.40
2017-07-10T19:30:04.853Z,75.73
2017-07-10T19:32:32.981Z,68.70
2017-07-10T19:35:01.903Z,73.80
2017-07-10T19:37:30.071Z,39.73
2017-07-10T19:39:58.226Z,21.07
2017-07-10T19:42:27.833Z,21.40
2017-07-10T19:44:56.018Z,12.13
2017-07-10T19:47:24.586Z,8.00
2017-07-10T19:49:52.909Z,5.30
2017-07-10T19:52:21.119Z,8.67
2017-07-10T19:54:49.245Z,6.37
2017-07-10T19:57:18.508Z,6.83
2017-07-10T19:59:46.692Z,7.40
2017-07-10T20:02:15.872Z,14.37
2017-07-10T20:04:44.702Z,7.90
2017-07-10T20:07:13.309Z,5.10
2017-07-10T20:09:41.454Z,4.83
2017-07-10T20:12:10.172Z,6.40
2017-07-10T20:14:38.450Z,5.43
2017-07-10T20:17:06.597Z,5.30
2017-07-10T20:19:34.714Z,5.73
2017-07-10T20:22:03.358Z,5.90
2017-07-10T20:24:31.908Z,7.00
2017-07-10T20:27:00.139Z,5.60
2017-07-10T20:29:28.415Z,7.17
2017-07-10T20:31:57.384Z,6.53
2017-07-10T20:34:25.535Z,39.10
2017-07-10T20:36:53.702Z,25.60
2017-07-10T20:39:21.845Z,15.67
2017-07-10T20:41:50.323Z,8.10
2017-07-10T20:44:19.286Z,7.67
2017-07-10T20:46:47.961Z,8.87
2017-07-10T20:49:16.484Z,8.90
2017-07-10T20:51:44.691Z,9.07
2017-07-10T20:54:12.802Z,7.80
2017-07-10T20:56:41.686Z,7.23
2017-07-10T20:59:09.838Z,13.37
2017-07-10T21:01:37.957Z,9.90
2017-07-10T21:04:06.090Z,5.60
2017-07-10T21:06:34.248Z,6.67
2017-07-10T21:09:02.377Z,5.17
2017-07-10T21:11:32.057Z,5.00
2017-07-10T21:14:01.000Z,7.60
2017-07-10T21:16:30.104Z,5.40
2017-07-10T21:18:58.239Z,5.73
2017-07-10T21:21:27.274Z,5.83
2017-07-10T21:23:55.424Z,73.67
2017-07-10T21:26:23.591Z,66.23
2017-07-10T21:28:51.788Z,12.10
2017-07-10T21:31:20.561Z,4.63
2017-07-10T21:33:48.702Z,4.73
2017-07-10T21:36:17.311Z,4.30
2017-07-10T21:38:47.136Z,5.40
2017-07-10T21:41:15.292Z,4.37
2017-07-10T21:43:44.371Z,3.93
2017-07-10T21:46:12.515Z,7.00
2017-07-10T21:48:40.702Z,4.47
2017-07-10T21:51:09.576Z,6.10
2017-07-10T21:53:38.481Z,5.27
2017-07-10T21:56:06.614Z,5.87
2017-07-10T21:58:34.737Z,5.00
2017-07-10T22:01:02.869Z,7.70
2017-07-10T22:03:31.035Z,5.53
2017-07-10T22:05:59.201Z,5.07
2017-07-10T22:08:27.629Z,6.73
2017-07-10T22:10:55.794Z,5.37
2017-07-10T22:13:23.925Z,5.37
2017-07-10T22:15:52.136Z,5.30
2017-07-10T22:18:20.315Z,5.80
2017-07-10T22:20:48.445Z,6.03
2017-07-10T22:23:16.581Z,6.40
2017-07-10T22:25:44.727Z,6.03
2017-07-10T22:28:13.621Z,8.33
2017-07-10T22:30:41.780Z,9.07
2017-07-10T22:33:09.968Z,6.57
2017-07-10T22:35:38.116Z,6.57
2017-07-10T22:38:07.028Z,6.10
2017-07-10T22:40:35.211Z,6.03
2017-07-10T22:43:03.340Z,6.10
2017-07-10T22:45:31.491Z,19.30
2017-07-10T22:47:59.645Z,8.07
2017-07-10T22:50:27.813Z,6.30
2017-07-10T22:52:55.941Z,6.50
2017-07-10T22:55:24.092Z,6.33
2017-07-10T22:57:52.242Z,4.97
2017-07-10T23:00:20.363Z,6.23
2017-07-10T23:02:48.538Z,5.93
2017-07-10T23:05:17.419Z,5.50
2017-07-10T23:07:45.571Z,6.07
2017-07-10T23:10:13.734Z,7.60
2017-07-10T23:12:41.851Z,9.40
2017-07-10T23:15:10.739Z,10.50
2017-07-10T23:17:38.884Z,10.10
2017-07-10T23:22:51.012Z,9.70
2017-07-10T23:25:19.148Z,9.17
2017-07-10T23:27:47.330Z,11.50
2017-07-10T23:30:15.567Z,11.57
2017-07-10T23:32:43.729Z,9.43
2017-07-10T23:35:11.909Z,12.50
2017-07-10T23:37:40.095Z,10.37
2017-07-10T23:40:08.232Z,8.80
2017-07-10T23:42:36.374Z,13.53
2017-07-10T23:45:04.526Z,10.83
2017-07-10T23:47:32.659Z,9.77
2017-07-10T23:50:00.790Z,10.73
2017-07-10T23:52:28.929Z,11.03
2017-07-10T23:54:57.777Z,11.17
2017-07-10T23:57:26.672Z,10.83
2017-07-10T23:59:54.843Z,10.07
